createdAt,value
2023-08-20T00:00:46.305Z,8.18
2023-08-20T00:02:09.992Z,8.98
2023-08-20T00:03:13.552Z,8.48
2023-08-20T00:04:16.679Z,8.88
2023-08-20T00:05:19.166Z,8.45
2023-08-20T00:06:21.993Z,8.45
2023-08-20T00:07:24.442Z,9.05
2023-08-20T00:08:26.816Z,9.98
2023-08-20T00:09:28.957Z,8.73
2023-08-20T00:10:31.404Z,9.63
2023-08-20T00:11:33.356Z,8.95
2023-08-20T00:12:35.681Z,9.43
2023-08-20T00:13:37.907Z,8.82
2023-08-20T00:15:07.829Z,7.82
2023-08-20T00:16:10.610Z,8.82
2023-08-20T00:17:13.184Z,8.15
2023-08-20T00:18:15.740Z,9.15
2023-08-20T00:19:18.051Z,7.95
2023-08-20T00:20:20.613Z,7.95
2023-08-20T00:21:22.896Z,8.73
2023-08-20T00:22:26.422Z,7.68
2023-08-20T00:23:28.997Z,8.82
2023-08-20T00:24:31.232Z,8.20
2023-08-20T00:25:33.568Z,8.60
2023-08-20T00:26:36.105Z,9.50
2023-08-20T00:27:38.679Z,9.43
2023-08-20T00:28:40.699Z,9.32
2023-08-20T00:29:42.702Z,8.23
2023-08-20T00:30:44.747Z,9.98
2023-08-20T00:31:47.135Z,8.68
2023-08-20T00:32:50.003Z,8.77
2023-08-20T00:34:04.830Z,8.27
2023-08-20T00:35:09.118Z,8.77
2023-08-20T00:36:11.373Z,9.07
2023-08-20T00:37:13.554Z,7.00
2023-08-20T00:38:15.550Z,7.78
2023-08-20T00:39:17.498Z,8.00
2023-08-20T00:40:19.885Z,7.72
2023-08-20T00:41:21.872Z,8.48
2023-08-20T00:42:23.911Z,8.00
2023-08-20T00:43:25.988Z,9.32
2023-08-20T00:44:28.352Z,8.95
2023-08-20T00:45:30.663Z,7.88
2023-08-20T00:46:33.085Z,9.25
2023-08-20T00:47:37.089Z,8.75
2023-08-20T00:48:39.734Z,7.93
2023-08-20T00:49:42.705Z,8.25
2023-08-20T00:50:44.815Z,7.75
2023-08-20T00:51:46.931Z,7.85
2023-08-20T00:52:49.660Z,8.88
2023-08-20T00:53:51.760Z,7.38
2023-08-20T00:54:54.552Z,8.05
2023-08-20T00:55:56.571Z,7.28
2023-08-20T00:57:00.793Z,8.00
2023-08-20T00:58:02.914Z,7.85
2023-08-20T00:59:06.666Z,7.28
2023-08-20T01:00:10.795Z,8.10
2023-08-20T01:01:12.853Z,7.78
2023-08-20T01:02:16.036Z,7.40
2023-08-20T01:03:18.064Z,8.40
2023-08-20T01:04:20.985Z,7.68
2023-08-20T01:05:23.222Z,8.13
2023-08-20T01:06:47.299Z,7.53
2023-08-20T01:08:13.658Z,7.90
2023-08-20T01:09:44.502Z,8.40
2023-08-20T01:10:53.545Z,7.93
2023-08-20T01:12:01.068Z,7.88
2023-08-20T01:13:03.419Z,7.93
2023-08-20T01:14:15.801Z,8.30
2023-08-20T01:15:17.920Z,7.63
2023-08-20T01:16:20.299Z,7.72
2023-08-20T01:17:22.417Z,7.70
2023-08-20T01:18:25.739Z,7.80
2023-08-20T01:19:29.061Z,8.07
2023-08-20T01:20:37.121Z,6.60
2023-08-20T01:21:40.733Z,7.80
2023-08-20T01:22:46.218Z,8.32
2023-08-20T01:24:11.817Z,8.75
2023-08-20T01:25:46.194Z,8.38
2023-08-20T01:27:01.897Z,7.65
2023-08-20T01:28:32.347Z,8.35
2023-08-20T01:29:34.851Z,6.88
2023-08-20T01:30:38.408Z,8.20
2023-08-20T01:31:42.143Z,7.75
2023-08-20T01:32:44.699Z,8.48
2023-08-20T01:33:47.111Z,6.97
2023-08-20T01:35:55.793Z,7.90
2023-08-20T01:36:57.773Z,8.55
2023-08-20T01:37:59.725Z,6.95
2023-08-20T01:39:02.101Z,8.13
2023-08-20T01:40:05.246Z,7.63
2023-08-20T01:41:07.376Z,7.95
2023-08-20T01:42:09.505Z,8.05
2023-08-20T01:43:12.131Z,7.80
2023-08-20T01:44:14.196Z,6.90
2023-08-20T01:45:16.293Z,7.40
2023-08-20T01:46:18.397Z,8.07
2023-08-20T01:47:20.737Z,8.85
2023-08-20T01:48:22.730Z,7.90
2023-08-20T01:49:24.750Z,7.60
2023-08-20T01:50:26.856Z,8.10
2023-08-20T01:51:29.451Z,8.15
2023-08-20T01:52:31.876Z,8.05
2023-08-20T01:53:33.870Z,8.52
2023-08-20T01:54:36.112Z,7.55
2023-08-20T01:55:38.181Z,8.35
2023-08-20T01:56:40.617Z,7.50
2023-08-20T01:57:42.768Z,7.38
2023-08-20T01:58:44.799Z,7.75
2023-08-20T01:59:47.539Z,7.72
2023-08-20T02:00:49.876Z,7.07
2023-08-20T02:01:51.937Z,8.65
2023-08-20T02:02:54.294Z,8.57
2023-08-20T02:03:56.555Z,7.90
2023-08-20T02:04:59.024Z,7.63
2023-08-20T02:06:01.153Z,7.85
2023-08-20T02:07:03.190Z,7.97
2023-08-20T02:08:05.881Z,7.88
2023-08-20T02:09:08.248Z,8.00
2023-08-20T02:10:10.366Z,7.82
2023-08-20T02:11:12.388Z,8.02
2023-08-20T02:12:14.357Z,8.07
2023-08-20T02:13:16.736Z,8.70
2023-08-20T02:14:18.975Z,7.03
2023-08-20T02:15:20.953Z,7.47
2023-08-20T02:16:22.997Z,7.38
2023-08-20T02:17:25.335Z,7.03
2023-08-20T02:18:27.389Z,7.57
2023-08-20T02:19:29.443Z,8.57
2023-08-20T02:20:31.401Z,8.00
2023-08-20T02:21:33.795Z,7.45
2023-08-20T02:22:35.946Z,7.45
2023-08-20T02:23:37.946Z,7.95
2023-08-20T02:24:40.242Z,6.85
2023-08-20T02:25:42.230Z,7.95
2023-08-20T02:26:44.698Z,7.38
2023-08-20T02:27:46.703Z,8.07
2023-08-20T02:28:48.689Z,7.65
2023-08-20T02:29:50.879Z,7.75
2023-08-20T02:30:53.310Z,7.93
2023-08-20T02:31:55.390Z,7.25
2023-08-20T02:32:57.496Z,6.25
2023-08-20T02:33:59.553Z,7.25
2023-08-20T02:35:01.948Z,8.30
2023-08-20T02:36:05.256Z,7.60
2023-08-20T02:37:07.564Z,7.45
2023-08-20T02:38:11.285Z,8.18
2023-08-20T02:39:14.700Z,6.82
2023-08-20T02:40:16.790Z,7.40
2023-08-20T02:41:18.857Z,8.02
2023-08-20T02:42:20.851Z,7.82
2023-08-20T02:43:23.474Z,8.20
2023-08-20T02:44:25.579Z,7.38
2023-08-20T02:45:27.932Z,7.88
2023-08-20T02:47:32.967Z,6.72
2023-08-20T02:48:35.140Z,7.50
2023-08-20T02:49:37.183Z,6.35
2023-08-20T02:50:39.486Z,7.93
2023-08-20T02:51:42.966Z,7.93
2023-08-20T02:52:46.535Z,7.10
2023-08-20T02:53:48.539Z,7.93
2023-08-20T02:54:50.611Z,6.05
2023-08-20T02:55:52.743Z,7.47
2023-08-20T02:56:55.056Z,7.38
2023-08-20T02:57:57.048Z,7.78
2023-08-20T02:58:59.029Z,7.07
2023-08-20T03:00:00.997Z,7.88
2023-08-20T03:01:04.043Z,7.68
2023-08-20T03:02:06.024Z,7.13
2023-08-20T03:03:09.717Z,6.82
2023-08-20T03:04:11.832Z,7.47
2023-08-20T03:05:14.255Z,7.60
2023-08-20T03:06:16.279Z,7.55
2023-08-20T03:07:18.293Z,8.30
2023-08-20T03:08:20.475Z,8.02
2023-08-20T03:09:22.813Z,7.32
2023-08-20T03:10:24.981Z,7.20
2023-08-20T03:11:26.928Z,7.47
2023-08-20T03:12:28.910Z,7.13
2023-08-20T03:13:31.278Z,7.95
2023-08-20T03:14:33.251Z,7.20
2023-08-20T03:15:35.187Z,7.75
2023-08-20T03:16:37.160Z,8.77
2023-08-20T03:17:39.851Z,6.35
2023-08-20T03:18:42.111Z,7.75
2023-08-20T03:20:07.449Z,7.63
2023-08-20T03:21:09.451Z,7.30
2023-08-20T03:22:11.821Z,6.57
2023-08-20T03:23:13.797Z,7.10
2023-08-20T03:24:15.799Z,8.30
2023-08-20T03:25:17.873Z,8.32
2023-08-20T03:26:19.889Z,7.43
2023-08-20T03:27:22.216Z,7.78
2023-08-20T03:28:24.267Z,6.88
2023-08-20T03:29:26.679Z,8.52
2023-08-20T03:30:29.097Z,7.40
2023-08-20T03:31:31.596Z,7.88
2023-08-20T03:32:33.716Z,7.63
2023-08-20T03:33:35.761Z,9.35
2023-08-20T03:34:37.930Z,7.38
2023-08-20T03:35:40.447Z,6.18
2023-08-20T03:36:42.465Z,7.63
2023-08-20T03:37:44.461Z,8.07
2023-08-20T03:38:46.514Z,7.68
2023-08-20T03:39:48.899Z,7.13
2023-08-20T03:40:51.390Z,8.00
2023-08-20T03:41:54.117Z,7.55
2023-08-20T03:43:58.316Z,8.90
2023-08-20T03:45:00.316Z,8.30
2023-08-20T03:46:03.626Z,7.63
2023-08-20T03:47:08.514Z,7.40
2023-08-20T03:48:12.061Z,7.85
2023-08-20T03:49:14.937Z,8.25
2023-08-20T03:50:16.992Z,7.18
2023-08-20T03:51:19.105Z,6.30
2023-08-20T03:52:21.436Z,7.10
2023-08-20T03:53:23.475Z,6.80
2023-08-20T03:54:25.478Z,7.15
2023-08-20T03:55:27.560Z,8.00
2023-08-20T03:56:30.006Z,7.85
2023-08-20T03:57:32.082Z,7.47
2023-08-20T03:58:34.084Z,6.88
2023-08-20T03:59:36.074Z,6.47
2023-08-20T04:00:38.475Z,6.75
2023-08-20T04:01:40.868Z,6.70
2023-08-20T04:02:42.940Z,6.97
2023-08-20T04:03:45.093Z,7.15
2023-08-20T04:04:47.409Z,6.40
2023-08-20T04:05:51.108Z,7.05
2023-08-20T04:06:53.200Z,7.55
2023-08-20T04:07:55.295Z,7.50
2023-08-20T04:08:57.680Z,7.40
2023-08-20T04:09:59.791Z,6.75
2023-08-20T04:11:02.693Z,7.32
2023-08-20T04:12:05.587Z,6.72
2023-08-20T04:13:07.926Z,6.97
2023-08-20T04:14:09.983Z,6.43
2023-08-20T04:15:12.048Z,6.80
2023-08-20T04:16:15.062Z,6.90
2023-08-20T04:17:17.381Z,7.82
2023-08-20T04:18:19.397Z,7.13
2023-08-20T04:19:21.536Z,6.93
2023-08-20T04:20:24.466Z,7.32
2023-08-20T04:21:27.046Z,7.18
2023-08-20T04:22:31.627Z,6.70
2023-08-20T04:23:33.632Z,7.25
2023-08-20T04:24:35.823Z,6.82
2023-08-20T04:25:38.178Z,7.85
2023-08-20T04:26:40.256Z,6.80
2023-08-20T04:27:42.431Z,6.53
2023-08-20T04:28:44.531Z,6.28
2023-08-20T04:29:46.540Z,6.82
2023-08-20T04:30:49.578Z,8.13
2023-08-20T04:32:53.468Z,8.10
2023-08-20T04:33:55.581Z,7.05
2023-08-20T04:34:57.967Z,7.50
2023-08-20T04:35:59.987Z,7.13
2023-08-20T04:37:02.231Z,6.93
2023-08-20T04:38:04.688Z,6.75
2023-08-20T04:39:07.093Z,7.88
2023-08-20T04:40:09.602Z,7.07
2023-08-20T04:41:11.665Z,6.55
2023-08-20T04:42:13.670Z,7.57
2023-08-20T04:43:16.741Z,6.95
2023-08-20T04:45:21.082Z,6.80
2023-08-20T04:46:23.172Z,7.47
2023-08-20T04:47:25.617Z,6.97
2023-08-20T04:48:27.626Z,7.80
2023-08-20T04:49:31.349Z,7.35
2023-08-20T04:50:33.320Z,7.35
2023-08-20T04:51:35.704Z,7.80
2023-08-20T04:52:37.730Z,7.55
2023-08-20T04:53:39.787Z,7.10
2023-08-20T04:54:41.888Z,7.75
2023-08-20T04:55:44.370Z,7.03
2023-08-20T04:56:46.378Z,7.15
2023-08-20T04:57:48.335Z,7.88
2023-08-20T04:58:50.293Z,7.13
2023-08-20T04:59:52.821Z,7.00
2023-08-20T05:00:54.834Z,7.55
2023-08-20T05:01:56.900Z,7.22
2023-08-20T05:02:59.921Z,7.50
2023-08-20T05:04:02.385Z,6.65
2023-08-20T05:05:05.272Z,7.20
2023-08-20T05:07:09.347Z,8.13
2023-08-20T05:08:13.141Z,7.43
2023-08-20T05:09:15.850Z,7.78
2023-08-20T05:11:19.835Z,7.82
2023-08-20T05:12:22.175Z,7.43
2023-08-20T05:13:25.284Z,6.18
2023-08-20T05:14:27.412Z,7.13
2023-08-20T05:15:29.474Z,7.80
2023-08-20T05:16:31.876Z,7.60
2023-08-20T05:17:33.877Z,7.68
2023-08-20T05:18:35.844Z,8.30
2023-08-20T05:19:37.935Z,8.13
2023-08-20T05:20:41.477Z,7.95
2023-08-20T05:21:43.460Z,9.07
2023-08-20T05:22:48.260Z,8.18
2023-08-20T05:23:50.199Z,8.18
2023-08-20T05:24:52.540Z,7.70
2023-08-20T05:25:54.543Z,6.63
2023-08-20T05:27:20.761Z,7.13
2023-08-20T05:28:22.810Z,7.53
2023-08-20T05:29:25.070Z,7.28
2023-08-20T05:30:27.205Z,7.13
2023-08-20T05:31:29.552Z,7.57
2023-08-20T05:32:32.179Z,7.63
2023-08-20T05:33:34.601Z,7.07
2023-08-20T05:34:37.138Z,7.70
2023-08-20T05:35:39.538Z,7.63
2023-08-20T05:36:43.459Z,6.38
2023-08-20T05:37:45.559Z,6.63
2023-08-20T05:38:47.917Z,6.00
2023-08-20T05:39:50.013Z,7.68
2023-08-20T05:40:52.104Z,7.15
2023-08-20T05:41:55.100Z,7.55
2023-08-20T05:42:57.681Z,7.15
2023-08-20T05:45:02.023Z,7.40
2023-08-20T05:46:04.598Z,7.90
2023-08-20T05:47:06.960Z,7.90
2023-08-20T05:48:09.489Z,7.32
2023-08-20T05:49:11.505Z,7.45
2023-08-20T05:50:13.496Z,7.03
2023-08-20T05:51:15.553Z,7.60
2023-08-20T05:52:17.855Z,7.75
2023-08-20T05:53:19.925Z,6.78
2023-08-20T05:54:22.000Z,8.48
2023-08-20T05:55:24.093Z,7.30
2023-08-20T05:56:26.450Z,7.53
2023-08-20T05:57:28.422Z,7.85
2023-08-20T05:58:30.433Z,7.97
2023-08-20T05:59:32.420Z,8.32
2023-08-20T06:00:34.754Z,8.05
2023-08-20T06:01:36.945Z,7.68
2023-08-20T06:02:39.324Z,7.60
2023-08-20T06:03:41.525Z,8.18
2023-08-20T06:04:43.789Z,7.93
2023-08-20T06:05:45.721Z,7.82
2023-08-20T06:06:47.771Z,7.18
2023-08-20T06:07:49.868Z,7.82
2023-08-20T06:09:06.591Z,8.38
2023-08-20T06:10:11.038Z,8.30
2023-08-20T06:11:13.040Z,7.50
2023-08-20T06:12:15.016Z,7.95
2023-08-20T06:13:17.342Z,7.20
2023-08-20T06:14:19.337Z,7.95
2023-08-20T06:15:21.310Z,8.05
2023-08-20T06:16:23.372Z,7.95
2023-08-20T06:17:26.037Z,7.88
2023-08-20T06:18:28.033Z,6.80
2023-08-20T06:19:30.726Z,6.63
2023-08-20T06:21:35.269Z,6.72
2023-08-20T06:22:37.285Z,6.75
2023-08-20T06:23:44.626Z,7.13
2023-08-20T06:24:46.792Z,6.60
2023-08-20T06:25:51.881Z,7.35
2023-08-20T06:26:54.034Z,6.32
2023-08-20T06:27:56.155Z,7.93
2023-08-20T06:28:58.101Z,7.93
2023-08-20T06:30:01.438Z,7.85
2023-08-20T06:31:03.487Z,8.02
2023-08-20T06:32:06.367Z,7.68
2023-08-20T06:33:08.516Z,8.20
2023-08-20T06:34:11.157Z,7.18
2023-08-20T06:35:13.294Z,8.80
2023-08-20T06:36:15.296Z,8.82
2023-08-20T06:37:17.347Z,8.27
2023-08-20T06:38:19.924Z,7.93
2023-08-20T06:39:21.955Z,6.90
2023-08-20T06:40:23.975Z,7.65
2023-08-20T06:41:26.086Z,7.20
2023-08-20T06:42:28.437Z,8.35
2023-08-20T06:43:30.468Z,7.60
2023-08-20T06:44:32.515Z,8.50
2023-08-20T06:45:34.526Z,8.02
2023-08-20T06:46:36.887Z,8.10
2023-08-20T06:47:39.515Z,6.80
2023-08-20T06:48:41.970Z,7.82
2023-08-20T06:49:43.974Z,8.27
2023-08-20T06:50:46.347Z,8.15
2023-08-20T06:51:48.325Z,8.20
2023-08-20T06:52:50.320Z,8.65
2023-08-20T06:53:52.435Z,7.90
2023-08-20T06:54:54.833Z,7.28
2023-08-20T06:55:56.830Z,7.40
2023-08-20T06:56:58.785Z,7.85
2023-08-20T06:58:01.186Z,8.13
2023-08-20T06:59:06.366Z,8.77
2023-08-20T07:00:08.718Z,7.13
2023-08-20T07:01:11.179Z,8.32
2023-08-20T07:02:13.198Z,8.50
2023-08-20T07:04:17.820Z,8.00
2023-08-20T07:05:19.856Z,7.97
2023-08-20T07:06:21.972Z,8.75
2023-08-20T07:07:24.632Z,9.35
2023-08-20T07:08:26.629Z,8.70
2023-08-20T07:09:28.652Z,8.48
2023-08-20T07:10:30.746Z,9.02
2023-08-20T07:11:33.166Z,8.20
2023-08-20T07:12:35.122Z,9.55
2023-08-20T07:13:37.694Z,8.60
2023-08-20T07:14:39.882Z,8.60
2023-08-20T07:15:42.260Z,9.75
2023-08-20T07:16:44.353Z,7.93
2023-08-20T07:17:46.635Z,7.70
2023-08-20T07:18:48.881Z,8.23
2023-08-20T07:19:51.165Z,8.05
2023-08-20T07:20:53.585Z,7.88
2023-08-20T07:21:55.816Z,8.65
2023-08-20T07:22:58.514Z,7.97
2023-08-20T07:24:02.144Z,8.50
2023-08-20T07:25:04.789Z,8.57
2023-08-20T07:27:13.839Z,8.80
2023-08-20T07:28:16.264Z,8.27
2023-08-20T07:30:20.683Z,8.07
2023-08-20T07:31:22.866Z,7.88
2023-08-20T07:32:24.931Z,8.00
2023-08-20T07:33:27.243Z,9.20
2023-08-20T07:34:29.233Z,8.52
2023-08-20T07:35:31.260Z,8.60
2023-08-20T07:36:33.281Z,7.40
2023-08-20T07:37:35.465Z,9.02
2023-08-20T07:39:44.281Z,8.20
2023-08-20T07:40:46.271Z,8.57
2023-08-20T07:41:48.303Z,9.02
2023-08-20T07:42:51.552Z,8.88
2023-08-20T07:43:54.190Z,9.23
2023-08-20T07:45:58.056Z,8.27
2023-08-20T07:47:00.176Z,9.23
2023-08-20T07:48:03.399Z,9.90
2023-08-20T07:49:06.936Z,8.55
2023-08-20T07:50:09.575Z,8.77
2023-08-20T07:52:14.030Z,8.88
2023-08-20T07:53:15.984Z,9.15
2023-08-20T07:54:17.939Z,9.88
2023-08-20T07:55:20.202Z,8.18
2023-08-20T07:56:22.666Z,8.40
2023-08-20T07:57:24.749Z,8.27
2023-08-20T07:58:29.226Z,8.32
2023-08-20T07:59:32.627Z,8.68
2023-08-20T08:00:35.112Z,9.07
2023-08-20T08:01:38.001Z,10.18
2023-08-20T08:02:40.066Z,8.65
2023-08-20T08:03:42.557Z,8.90
2023-08-20T08:04:46.584Z,8.40
2023-08-20T08:05:49.619Z,9.63
2023-08-20T08:06:51.598Z,7.90
2023-08-20T08:07:53.684Z,8.35
2023-08-20T08:08:56.082Z,8.38
2023-08-20T08:09:58.168Z,8.80
2023-08-20T08:11:00.247Z,9.15
2023-08-20T08:12:02.889Z,9.52
2023-08-20T08:13:05.301Z,9.25
2023-08-20T08:14:07.388Z,10.07
2023-08-20T08:15:09.553Z,8.20
2023-08-20T08:16:11.772Z,9.13
2023-08-20T08:18:16.446Z,8.70
2023-08-20T08:19:19.131Z,9.48
2023-08-20T08:21:23.304Z,8.45
2023-08-20T08:22:25.359Z,9.10
2023-08-20T08:23:27.293Z,8.43
2023-08-20T08:24:29.302Z,7.75
2023-08-20T08:25:31.861Z,9.60
2023-08-20T08:26:35.191Z,9.80
2023-08-20T08:27:50.466Z,8.50
2023-08-20T08:28:59.316Z,8.88
2023-08-20T08:30:01.704Z,8.40
2023-08-20T08:31:05.817Z,8.98
2023-08-20T08:32:09.243Z,8.88
2023-08-20T08:33:11.247Z,8.45
2023-08-20T08:34:13.836Z,9.43
2023-08-20T08:35:15.939Z,9.48
2023-08-20T08:36:18.142Z,8.82
2023-08-20T08:37:20.282Z,8.55
2023-08-20T08:38:23.008Z,9.10
2023-08-20T08:39:26.041Z,8.00
2023-08-20T08:40:30.734Z,8.90
2023-08-20T08:41:36.728Z,8.60
2023-08-20T08:42:39.282Z,9.40
2023-08-20T08:43:42.262Z,7.90
2023-08-20T08:44:45.865Z,8.32
2023-08-20T08:45:51.067Z,8.05
2023-08-20T08:46:53.930Z,8.77
2023-08-20T08:47:56.724Z,8.63
2023-08-20T08:48:58.914Z,9.88
2023-08-20T08:50:01.037Z,8.25
2023-08-20T08:51:03.745Z,8.13
2023-08-20T08:52:07.437Z,9.05
2023-08-20T08:53:09.883Z,8.25
2023-08-20T08:54:12.688Z,8.60
2023-08-20T08:55:14.669Z,9.32
2023-08-20T08:56:17.063Z,8.80
2023-08-20T08:57:19.204Z,8.20
2023-08-20T08:58:21.253Z,8.05
2023-08-20T08:59:23.274Z,8.35
2023-08-20T09:00:26.165Z,8.80
2023-08-20T09:01:28.229Z,8.73
2023-08-20T09:02:31.908Z,8.70
2023-08-20T09:03:34.162Z,9.93
2023-08-20T09:05:55.327Z,9.13
2023-08-20T09:06:58.611Z,8.80
2023-08-20T09:08:00.750Z,9.57
2023-08-20T09:09:07.865Z,8.77
2023-08-20T09:10:10.216Z,8.45
2023-08-20T09:11:12.256Z,8.18
2023-08-20T09:12:15.946Z,8.63
2023-08-20T09:13:18.323Z,9.68
2023-08-20T09:14:25.537Z,8.90
2023-08-20T09:15:34.772Z,8.20
2023-08-20T09:16:36.999Z,8.95
2023-08-20T09:18:43.481Z,8.38
2023-08-20T09:19:46.724Z,7.82
2023-08-20T09:20:52.876Z,7.93
2023-08-20T09:21:57.242Z,7.63
2023-08-20T09:22:59.284Z,7.70
2023-08-20T09:24:03.665Z,8.48
2023-08-20T09:25:06.208Z,8.98
2023-08-20T09:26:09.093Z,8.07
2023-08-20T09:27:11.633Z,8.57
2023-08-20T09:28:13.628Z,8.40
2023-08-20T09:29:15.666Z,8.65
2023-08-20T09:30:23.641Z,8.20
2023-08-20T09:31:39.710Z,8.18
2023-08-20T09:32:41.776Z,8.07
2023-08-20T09:33:54.196Z,7.30
2023-08-20T09:34:57.463Z,7.93
2023-08-20T09:35:59.564Z,7.88
2023-08-20T09:37:02.393Z,8.85
2023-08-20T09:38:05.560Z,9.25
2023-08-20T09:39:08.029Z,8.15
2023-08-20T09:40:10.572Z,8.25
2023-08-20T09:41:14.149Z,7.65
2023-08-20T09:42:17.498Z,7.88
2023-08-20T09:43:21.381Z,8.07
2023-08-20T09:44:23.701Z,8.55
2023-08-20T09:45:27.164Z,8.57
2023-08-20T09:46:32.972Z,8.27
2023-08-20T09:47:38.172Z,7.93
2023-08-20T09:48:43.485Z,9.30
2023-08-20T09:49:47.553Z,8.63
2023-08-20T09:50:52.809Z,7.43
2023-08-20T09:51:58.198Z,7.60
2023-08-20T09:53:07.714Z,8.57
2023-08-20T09:54:19.088Z,8.73
2023-08-20T09:55:23.566Z,7.60
2023-08-20T09:56:32.266Z,8.50
2023-08-20T09:57:37.431Z,7.65
2023-08-20T09:58:40.164Z,7.78
2023-08-20T09:59:43.184Z,7.70
2023-08-20T10:00:45.816Z,7.88
2023-08-20T10:01:49.265Z,8.27
2023-08-20T10:02:52.039Z,10.25
2023-08-20T10:03:54.955Z,7.82
2023-08-20T10:04:57.592Z,8.70
2023-08-20T10:06:00.986Z,8.43
2023-08-20T10:07:04.547Z,8.65
2023-08-20T10:08:08.159Z,7.90
2023-08-20T10:09:10.871Z,8.60
2023-08-20T10:10:15.466Z,8.63
2023-08-20T10:11:17.915Z,7.55
2023-08-20T10:12:21.362Z,9.20
2023-08-20T10:13:23.992Z,8.27
2023-08-20T10:14:26.445Z,8.30
2023-08-20T10:15:29.898Z,9.15
2023-08-20T10:16:36.918Z,9.90
2023-08-20T10:17:43.946Z,7.60
2023-08-20T10:18:46.212Z,8.43
2023-08-20T10:19:48.488Z,8.60
2023-08-20T10:20:53.928Z,7.68
2023-08-20T10:21:57.788Z,7.65
2023-08-20T10:23:04.833Z,7.93
2023-08-20T10:24:10.226Z,8.45
2023-08-20T10:25:23.219Z,7.70
2023-08-20T10:26:26.014Z,9.00
2023-08-20T10:27:28.971Z,7.82
2023-08-20T10:28:33.016Z,8.32
2023-08-20T10:29:42.540Z,8.60
2023-08-20T10:31:09.703Z,7.65
2023-08-20T10:33:17.279Z,7.85
2023-08-20T10:34:36.295Z,7.95
2023-08-20T10:35:41.732Z,7.53
2023-08-20T10:36:43.824Z,8.48
2023-08-20T10:38:17.794Z,7.85
2023-08-20T10:39:24.893Z,9.00
2023-08-20T10:40:54.814Z,7.63
2023-08-20T10:42:21.975Z,7.25
2023-08-20T10:43:27.074Z,7.88
2023-08-20T10:44:29.157Z,7.85
2023-08-20T10:45:31.541Z,7.70
2023-08-20T10:46:36.223Z,7.95
2023-08-20T10:47:49.993Z,8.77
2023-08-20T10:48:59.830Z,8.02
2023-08-20T10:50:03.293Z,8.05
2023-08-20T10:51:15.573Z,9.35
2023-08-20T10:52:19.684Z,7.80
2023-08-20T10:53:23.662Z,7.40
2023-08-20T10:54:26.396Z,8.70
2023-08-20T10:55:29.608Z,7.80
2023-08-20T10:56:52.815Z,7.78
2023-08-20T10:58:00.974Z,8.05
2023-08-20T11:00:16.717Z,7.57
2023-08-20T11:01:23.558Z,8.20
2023-08-20T11:02:27.141Z,7.55
2023-08-20T11:03:29.658Z,7.53
2023-08-20T11:04:34.839Z,7.53
2023-08-20T11:05:37.720Z,8.18
2023-08-20T11:06:40.494Z,7.78
2023-08-20T11:07:42.722Z,7.93
2023-08-20T11:08:45.942Z,7.57
2023-08-20T11:09:49.951Z,8.05
2023-08-20T11:10:52.979Z,8.10
2023-08-20T11:11:55.641Z,8.65
2023-08-20T11:12:58.117Z,7.70
2023-08-20T11:14:13.035Z,7.60
2023-08-20T11:15:15.104Z,9.55
2023-08-20T11:16:17.363Z,8.73
2023-08-20T11:18:21.751Z,7.90
2023-08-20T11:19:25.050Z,8.30
2023-08-20T11:20:27.154Z,9.05
2023-08-20T11:21:30.661Z,8.00
2023-08-20T11:22:33.420Z,8.30
2023-08-20T11:23:36.805Z,7.55
2023-08-20T11:24:40.444Z,8.23
2023-08-20T11:25:44.095Z,8.25
2023-08-20T11:26:46.175Z,7.90
2023-08-20T11:27:49.282Z,8.10
2023-08-20T11:28:51.586Z,7.38
2023-08-20T11:29:55.467Z,8.63
2023-08-20T11:30:58.536Z,8.48
2023-08-20T11:32:04.411Z,8.65
2023-08-20T11:33:07.091Z,9.55
2023-08-20T11:34:09.721Z,9.13
2023-08-20T11:35:12.637Z,7.38
2023-08-20T11:36:21.183Z,8.35
2023-08-20T11:37:23.866Z,7.63
2023-08-20T11:38:26.659Z,7.35
2023-08-20T11:39:30.472Z,8.55
2023-08-20T11:40:32.572Z,7.57
2023-08-20T11:41:38.268Z,7.90
2023-08-20T11:42:41.432Z,8.13
2023-08-20T11:43:43.462Z,7.10
2023-08-20T11:44:48.007Z,8.10
2023-08-20T11:45:50.544Z,7.45
2023-08-20T11:46:52.997Z,7.78
2023-08-20T11:48:01.796Z,7.85
2023-08-20T11:49:08.576Z,7.10
2023-08-20T11:50:11.468Z,8.57
2023-08-20T11:51:13.917Z,7.15
2023-08-20T11:52:15.928Z,7.05
2023-08-20T11:53:26.648Z,7.03
2023-08-20T11:54:28.973Z,7.28
2023-08-20T11:56:34.638Z,7.35
2023-08-20T11:57:37.129Z,8.13
2023-08-20T11:59:41.573Z,7.00
2023-08-20T12:00:43.780Z,7.38
2023-08-20T12:02:02.373Z,8.15
2023-08-20T12:03:05.440Z,8.10
2023-08-20T12:04:10.144Z,6.82
2023-08-20T12:05:12.300Z,7.15
2023-08-20T12:06:21.881Z,7.93
2023-08-20T12:07:28.097Z,7.28
2023-08-20T12:08:39.212Z,7.30
2023-08-20T12:09:43.465Z,8.43
2023-08-20T12:10:45.935Z,7.60
2023-08-20T12:11:52.756Z,7.15
2023-08-20T12:12:59.002Z,7.57
2023-08-20T12:14:01.216Z,7.75
2023-08-20T12:15:03.310Z,7.00
2023-08-20T12:16:05.531Z,6.60
2023-08-20T12:18:10.756Z,7.57
2023-08-20T12:19:14.136Z,7.75
2023-08-20T12:20:16.422Z,7.13
2023-08-20T12:22:20.949Z,7.18
2023-08-20T12:23:23.740Z,6.80
2023-08-20T12:24:27.230Z,6.55
2023-08-20T12:25:32.346Z,6.28
2023-08-20T12:26:34.435Z,6.72
2023-08-20T12:27:36.815Z,7.10
2023-08-20T12:29:41.371Z,6.97
2023-08-20T12:30:43.659Z,6.57
2023-08-20T12:31:45.941Z,6.88
2023-08-20T12:32:47.986Z,7.55
2023-08-20T12:33:50.352Z,6.40
2023-08-20T12:34:52.352Z,6.78
2023-08-20T12:35:57.307Z,6.38
2023-08-20T12:36:59.332Z,6.25
2023-08-20T12:38:01.893Z,6.60
2023-08-20T12:39:05.685Z,6.57
2023-08-20T12:40:11.942Z,6.25
2023-08-20T12:41:14.074Z,6.88
2023-08-20T12:42:16.348Z,7.07
2023-08-20T12:43:18.403Z,6.50
2023-08-20T12:44:20.425Z,6.93
2023-08-20T12:45:22.564Z,6.78
2023-08-20T12:46:25.018Z,6.70
2023-08-20T12:47:27.043Z,6.47
2023-08-20T12:48:29.137Z,7.63
2023-08-20T12:49:31.119Z,6.55
2023-08-20T12:50:33.703Z,6.57
2023-08-20T12:51:35.704Z,6.80
2023-08-20T12:52:37.735Z,7.07
2023-08-20T12:53:40.531Z,7.10
2023-08-20T12:54:43.122Z,6.90
2023-08-20T12:55:45.124Z,6.95
2023-08-20T12:56:47.128Z,6.05
2023-08-20T12:57:56.960Z,6.85
2023-08-20T12:58:59.308Z,6.38
2023-08-20T13:00:01.392Z,8.13
2023-08-20T13:01:03.861Z,5.97
2023-08-20T13:02:06.492Z,5.55
2023-08-20T13:03:09.430Z,5.72
2023-08-20T13:04:12.102Z,5.65
2023-08-20T13:05:14.898Z,5.28
2023-08-20T13:06:17.420Z,5.38
2023-08-20T13:07:20.055Z,6.22
2023-08-20T13:08:22.385Z,5.80
2023-08-20T13:09:24.728Z,5.20
2023-08-20T13:10:28.580Z,5.88
2023-08-20T13:11:33.576Z,5.50
2023-08-20T13:12:35.863Z,5.57
2023-08-20T13:13:38.152Z,5.78
2023-08-20T13:14:43.394Z,6.38
2023-08-20T13:15:46.701Z,6.05
2023-08-20T13:16:49.373Z,6.18
2023-08-20T13:17:51.716Z,6.45
2023-08-20T13:18:54.081Z,6.57
2023-08-20T13:20:59.332Z,6.65
2023-08-20T13:22:01.375Z,7.32
2023-08-20T13:23:03.792Z,7.40
2023-08-20T13:24:07.422Z,6.10
2023-08-20T13:25:10.209Z,7.25
2023-08-20T13:26:12.166Z,6.38
2023-08-20T13:27:14.207Z,6.63
2023-08-20T13:28:16.687Z,6.63
2023-08-20T13:29:22.527Z,6.60
2023-08-20T13:30:24.856Z,7.35
2023-08-20T13:31:27.127Z,7.18
2023-08-20T13:33:31.645Z,6.30
2023-08-20T13:34:33.742Z,6.68
2023-08-20T13:35:35.964Z,6.90
2023-08-20T13:37:41.714Z,6.78
2023-08-20T13:38:43.800Z,6.38
2023-08-20T13:39:45.877Z,6.90
2023-08-20T13:40:48.330Z,6.72
2023-08-20T13:41:51.021Z,7.10
2023-08-20T13:43:55.041Z,6.85
2023-08-20T13:44:57.387Z,8.20
2023-08-20T13:45:59.430Z,6.93
2023-08-20T13:47:01.531Z,6.18
2023-08-20T13:48:03.743Z,7.15
2023-08-20T13:50:08.380Z,6.60
2023-08-20T13:51:10.651Z,6.95
2023-08-20T13:52:12.648Z,6.53
2023-08-20T13:53:14.991Z,7.10
2023-08-20T13:54:16.980Z,6.90
2023-08-20T13:55:19.098Z,7.00
2023-08-20T13:56:21.136Z,6.47
2023-08-20T13:57:23.579Z,7.10
2023-08-20T13:58:25.692Z,6.63
2023-08-20T13:59:27.733Z,6.15
2023-08-20T14:00:29.718Z,6.72
2023-08-20T14:01:32.168Z,6.32
2023-08-20T14:02:34.687Z,6.05
2023-08-20T14:03:37.278Z,6.22
2023-08-20T14:04:39.240Z,6.20
2023-08-20T14:05:41.632Z,5.63
2023-08-20T14:06:44.000Z,6.20
2023-08-20T14:07:46.114Z,5.90
2023-08-20T14:08:48.171Z,5.32
2023-08-20T14:09:50.733Z,5.68
2023-08-20T14:10:52.983Z,6.70
2023-08-20T14:11:54.981Z,6.80
2023-08-20T14:12:56.937Z,6.55
2023-08-20T14:13:59.464Z,6.22
2023-08-20T14:15:01.584Z,6.07
2023-08-20T14:16:03.884Z,6.03
2023-08-20T14:17:05.864Z,6.82
2023-08-20T14:18:10.369Z,7.10
2023-08-20T14:19:13.979Z,6.55
2023-08-20T14:20:16.118Z,7.03
2023-08-20T14:21:18.190Z,6.57
2023-08-20T14:22:20.596Z,7.18
2023-08-20T14:23:22.588Z,7.05
2023-08-20T14:24:24.596Z,6.72
2023-08-20T14:25:26.602Z,6.75
2023-08-20T14:26:28.919Z,6.00
2023-08-20T14:27:31.016Z,6.20
2023-08-20T14:28:33.045Z,5.93
2023-08-20T14:29:35.044Z,6.80
2023-08-20T14:30:39.358Z,5.75
2023-08-20T14:31:41.429Z,6.63
2023-08-20T14:32:43.679Z,6.90
2023-08-20T14:33:46.557Z,6.53
2023-08-20T14:34:49.016Z,6.40
2023-08-20T14:35:51.158Z,7.07
2023-08-20T14:36:53.226Z,6.22
2023-08-20T14:37:55.484Z,6.45
2023-08-20T14:39:59.720Z,5.57